createdAt,value
2023-04-18T00:03:10.536Z,7.20
2023-04-18T00:07:27.847Z,7.20
2023-04-18T00:11:45.400Z,7.20
2023-04-18T00:16:02.592Z,7.30
2023-04-18T00:20:19.809Z,7.00
2023-04-18T00:24:36.953Z,7.10
2023-04-18T00:28:54.271Z,7.10
2023-04-18T00:33:11.490Z,7.00
2023-04-18T00:37:29.976Z,7.00
2023-04-18T00:41:47.165Z,7.10
2023-04-18T00:46:04.528Z,7.10
2023-04-18T00:50:23.080Z,7.20
2023-04-18T00:54:41.340Z,7.00
2023-04-18T00:58:59.258Z,7.00
2023-04-18T01:03:18.371Z,7.00
2023-04-18T01:07:38.007Z,7.00
2023-04-18T01:11:55.210Z,7.10
2023-04-18T01:16:12.411Z,7.10
2023-04-18T01:20:31.229Z,7.10
2023-04-18T01:24:48.307Z,7.10
2023-04-18T01:29:05.718Z,7.10
2023-04-18T01:33:22.937Z,7.00
2023-04-18T01:37:40.045Z,7.00
2023-04-18T01:41:57.233Z,7.10
2023-04-18T01:46:14.443Z,7.10
2023-04-18T01:50:31.620Z,7.00
2023-04-18T01:54:48.753Z,7.00
2023-04-18T01:59:05.880Z,7.10
2023-04-18T02:03:23.580Z,7.10
2023-04-18T02:07:42.735Z,7.10
2023-04-18T02:12:02.608Z,7.20
2023-04-18T02:16:19.910Z,7.30
2023-04-18T02:20:37.257Z,7.20
2023-04-18T02:24:54.412Z,7.20
2023-04-18T02:29:11.841Z,7.20
2023-04-18T02:33:29.213Z,7.10
2023-04-18T02:37:46.400Z,7.10
2023-04-18T02:42:03.637Z,7.00
2023-04-18T02:46:21.246Z,7.00
2023-04-18T02:50:38.400Z,7.00
2023-04-18T02:54:55.834Z,7.00
2023-04-18T02:59:12.959Z,7.10
2023-04-18T03:03:30.151Z,7.10
2023-04-18T03:07:47.296Z,7.20
2023-04-18T03:12:04.647Z,7.20
2023-04-18T03:16:22.069Z,7.30
2023-04-18T03:20:39.974Z,7.30
2023-04-18T03:24:57.100Z,7.30
2023-04-18T03:29:14.228Z,7.20
2023-04-18T03:33:31.361Z,7.30
2023-04-18T03:37:48.458Z,7.40
2023-04-18T03:42:05.702Z,7.40
2023-04-18T03:46:24.612Z,7.20
2023-04-18T03:50:41.841Z,7.30
2023-04-18T03:54:59.054Z,7.40
2023-04-18T03:59:16.330Z,7.40
2023-04-18T04:03:33.572Z,7.50
2023-04-18T04:07:51.045Z,7.50
2023-04-18T04:12:08.273Z,7.50
2023-04-18T04:16:25.676Z,7.50
2023-04-18T04:20:45.560Z,7.50
2023-04-18T04:25:03.749Z,7.60
2023-04-18T04:29:24.013Z,7.60
2023-04-18T04:33:41.208Z,7.70
2023-04-18T04:37:58.904Z,7.70
2023-04-18T04:42:16.064Z,7.70
2023-04-18T04:46:33.938Z,7.70
2023-04-18T04:50:56.649Z,7.80
2023-04-18T04:55:13.761Z,7.80
2023-04-18T04:59:31.466Z,7.80
2023-04-18T05:03:49.902Z,7.80
2023-04-18T05:08:07.199Z,7.80
2023-04-18T05:12:24.328Z,7.70
2023-04-18T05:16:42.929Z,7.80
2023-04-18T05:21:00.347Z,7.80
2023-04-18T05:25:17.434Z,7.80
2023-04-18T05:29:34.554Z,7.80
2023-04-18T05:33:51.707Z,7.80
2023-04-18T05:38:08.942Z,7.50
2023-04-18T05:42:26.233Z,7.60
2023-04-18T05:46:43.481Z,7.80
2023-04-18T05:51:00.923Z,7.90
2023-04-18T05:55:18.251Z,7.80
2023-04-18T05:59:35.489Z,7.70
2023-04-18T06:03:52.891Z,7.70
2023-04-18T06:08:10.290Z,7.60
2023-04-18T06:12:28.153Z,7.50
2023-04-18T06:16:45.332Z,7.50
2023-04-18T06:21:02.446Z,7.60
2023-04-18T06:25:19.784Z,7.60
2023-04-18T06:29:38.066Z,7.60
2023-04-18T06:33:55.425Z,7.50
2023-04-18T06:38:12.622Z,7.50
2023-04-18T06:42:29.791Z,7.40
2023-04-18T06:46:46.963Z,7.50
2023-04-18T06:51:04.240Z,7.50
2023-04-18T06:55:21.515Z,7.40
2023-04-18T06:59:38.627Z,7.40
2023-04-18T07:03:55.990Z,7.50
2023-04-18T07:08:13.192Z,7.40
2023-04-18T07:12:30.386Z,7.40
2023-04-18T07:16:47.609Z,7.40
2023-04-18T07:21:07.519Z,7.30
2023-04-18T07:25:25.129Z,7.30
2023-04-18T07:29:42.499Z,7.30
2023-04-18T07:33:59.706Z,7.30
2023-04-18T07:38:17.289Z,7.30
2023-04-18T07:42:34.462Z,7.40
2023-04-18T07:46:52.233Z,7.40
2023-04-18T07:51:09.430Z,7.40
2023-04-18T07:55:26.981Z,7.40
2023-04-18T07:59:44.110Z,7.30
2023-04-18T08:04:01.966Z,7.20
2023-04-18T08:08:19.749Z,7.20
2023-04-18T08:12:37.180Z,7.30
2023-04-18T08:16:54.413Z,7.40
2023-04-18T08:21:11.691Z,7.50
2023-04-18T08:25:31.546Z,7.70
2023-04-18T08:29:48.736Z,8.00
2023-04-18T08:34:05.976Z,7.60
2023-04-18T08:38:23.176Z,7.60
2023-04-18T08:42:43.684Z,7.50
2023-04-18T08:47:01.578Z,7.60
2023-04-18T08:51:18.808Z,7.70
2023-04-18T08:55:36.284Z,7.70
2023-04-18T08:59:54.036Z,7.90
2023-04-18T09:04:13.889Z,7.50
2023-04-18T09:08:31.058Z,7.60
2023-04-18T09:12:52.141Z,7.60
2023-04-18T09:17:13.208Z,7.60
2023-04-18T09:21:32.732Z,7.60
2023-04-18T09:25:52.059Z,7.40
2023-04-18T09:30:09.793Z,7.30
2023-04-18T09:34:28.128Z,7.40
2023-04-18T09:38:45.843Z,7.50
2023-04-18T09:43:18.442Z,7.70
2023-04-18T09:47:37.234Z,7.60
2023-04-18T09:51:55.484Z,7.70
2023-04-18T09:56:27.541Z,7.90
2023-04-18T10:00:46.966Z,7.90
2023-04-18T10:05:07.885Z,7.80
2023-04-18T10:09:25.563Z,7.80
2023-04-18T10:13:46.365Z,8.00
2023-04-18T10:18:10.864Z,8.00
2023-04-18T10:22:28.328Z,7.90
2023-04-18T10:26:47.068Z,7.60
2023-04-18T10:31:04.934Z,7.90
2023-04-18T10:35:22.228Z,7.80
2023-04-18T10:40:05.954Z,8.10
2023-04-18T10:44:23.944Z,7.90
2023-04-18T10:48:41.332Z,8.00
2023-04-18T10:52:58.511Z,8.00
2023-04-18T10:57:15.652Z,8.00
2023-04-18T11:01:37.569Z,8.10
2023-04-18T11:06:02.506Z,8.10
2023-04-18T11:10:21.181Z,8.20
2023-04-18T11:14:45.738Z,8.30
2023-04-18T11:19:23.294Z,8.40
2023-04-18T11:23:41.415Z,8.30
2023-04-18T11:28:01.102Z,8.30
2023-04-18T11:32:18.332Z,8.20
2023-04-18T11:36:37.969Z,8.30
2023-04-18T11:40:55.245Z,8.20
2023-04-18T11:45:13.798Z,8.50
2023-04-18T11:49:33.729Z,8.60
2023-04-18T11:53:51.133Z,8.70
2023-04-18T11:58:08.358Z,8.80
2023-04-18T12:02:38.893Z,8.40
2023-04-18T12:06:56.800Z,8.40
2023-04-18T12:11:21.144Z,8.30
2023-04-18T12:15:40.729Z,8.50
2023-04-18T12:20:02.190Z,8.40
2023-04-18T12:24:19.595Z,8.50
2023-04-18T12:28:36.900Z,8.60
2023-04-18T12:32:57.130Z,8.70
2023-04-18T12:37:14.302Z,8.90
2023-04-18T12:41:31.586Z,9.00
2023-04-18T12:45:49.894Z,9.00
2023-04-18T12:50:11.946Z,8.90
2023-04-18T12:54:29.246Z,9.10
2023-04-18T12:58:46.473Z,9.00
2023-04-18T13:03:03.910Z,8.80
2023-04-18T13:07:21.669Z,8.90
2023-04-18T13:11:38.829Z,9.10
2023-04-18T13:15:56.326Z,8.80
2023-04-18T13:20:13.625Z,8.90
2023-04-18T13:24:30.890Z,9.00
2023-04-18T13:28:48.118Z,9.10
2023-04-18T13:33:05.324Z,9.10
2023-04-18T13:37:23.608Z,9.00
2023-04-18T13:41:40.760Z,9.00
2023-04-18T13:45:57.951Z,9.00
2023-04-18T13:50:15.270Z,9.00
2023-04-18T13:54:32.909Z,8.90
2023-04-18T13:58:50.949Z,9.00
2023-04-18T14:03:08.234Z,8.90
2023-04-18T14:07:25.438Z,8.80
2023-04-18T14:11:42.874Z,8.80
2023-04-18T14:16:01.435Z,8.90
2023-04-18T14:20:21.712Z,8.90
2023-04-18T14:24:38.860Z,8.90
2023-04-18T14:28:56.505Z,9.00
2023-04-18T14:33:13.717Z,8.90
2023-04-18T14:37:30.936Z,8.90
2023-04-18T14:41:48.252Z,9.00
2023-04-18T14:46:12.282Z,8.90
2023-04-18T14:50:29.797Z,8.80
2023-04-18T14:54:46.928Z,8.90
2023-04-18T14:59:04.137Z,8.80
2023-04-18T15:03:23.527Z,8.70
2023-04-18T15:07:42.834Z,8.90
2023-04-18T15:12:00.078Z,9.00
2023-04-18T15:16:18.500Z,9.00
2023-04-18T15:20:37.140Z,9.00
2023-04-18T15:24:54.309Z,9.10
2023-04-18T15:29:12.167Z,9.10
2023-04-18T15:33:29.431Z,9.10
2023-04-18T15:37:46.672Z,9.00
2023-04-18T15:42:03.856Z,9.00
2023-04-18T15:46:21.065Z,9.00
2023-04-18T15:50:38.248Z,8.90
2023-04-18T15:54:57.299Z,8.90
2023-04-18T15:59:14.650Z,8.90
2023-04-18T16:03:31.990Z,8.90
2023-04-18T16:07:49.372Z,8.90
2023-04-18T16:12:08.071Z,8.90
2023-04-18T16:16:25.852Z,9.00
2023-04-18T16:20:43.045Z,9.00
2023-04-18T16:25:00.328Z,9.00
2023-04-18T16:29:18.002Z,9.00
2023-04-18T16:33:35.185Z,9.00
2023-04-18T16:37:52.565Z,9.00
2023-04-18T16:42:10.139Z,9.10
2023-04-18T16:46:31.303Z,9.00
2023-04-18T16:50:50.140Z,9.00
2023-04-18T16:55:07.628Z,9.00
2023-04-18T16:59:24.850Z,9.00
2023-04-18T17:03:42.741Z,8.90
2023-04-18T17:08:00.628Z,9.00
2023-04-18T17:12:17.958Z,8.90
2023-04-18T17:16:38.615Z,8.90
2023-04-18T17:20:55.907Z,9.00
2023-04-18T17:25:13.088Z,9.00
2023-04-18T17:29:30.250Z,9.10
2023-04-18T17:33:47.454Z,9.10
2023-04-18T17:38:04.609Z,8.90
2023-04-18T17:42:21.850Z,9.00
2023-04-18T17:46:39.149Z,8.90
2023-04-18T17:50:56.279Z,8.90
2023-04-18T17:55:13.538Z,8.90
2023-04-18T17:59:30.660Z,8.90
2023-04-18T18:03:48.754Z,8.90
2023-04-18T18:08:06.223Z,8.90
2023-04-18T18:12:23.777Z,8.90
2023-04-18T18:16:41.096Z,8.90
2023-04-18T18:20:58.653Z,8.90
2023-04-18T18:25:15.875Z,8.90
2023-04-18T18:29:33.091Z,8.90
2023-04-18T18:33:51.014Z,9.00
2023-04-18T18:38:08.151Z,9.10
2023-04-18T18:42:25.509Z,9.10
2023-04-18T18:46:43.391Z,9.20
2023-04-18T18:51:01.127Z,9.20
2023-04-18T18:55:18.921Z,9.20
2023-04-18T18:59:36.065Z,9.20
2023-04-18T19:03:54.358Z,9.20
2023-04-18T19:08:11.824Z,9.30
2023-04-18T19:12:29.234Z,9.30
2023-04-18T19:16:46.325Z,9.30
2023-04-18T19:21:04.466Z,9.20
2023-04-18T19:25:21.906Z,9.30
2023-04-18T19:29:39.529Z,9.30
2023-04-18T19:33:56.933Z,9.30
2023-04-18T19:38:14.071Z,9.30
2023-04-18T19:42:31.222Z,9.30
2023-04-18T19:46:48.353Z,9.30
2023-04-18T19:51:05.779Z,9.40
2023-04-18T19:55:23.181Z,9.40
2023-04-18T19:59:40.410Z,9.30
2023-04-18T20:04:00.169Z,9.30
2023-04-18T20:08:17.845Z,9.30
2023-04-18T20:12:35.519Z,9.20
2023-04-18T20:16:52.794Z,9.20
2023-04-18T20:21:11.041Z,9.20
2023-04-18T20:25:28.280Z,9.20
2023-04-18T20:29:45.396Z,9.30
2023-04-18T20:34:02.555Z,9.30
2023-04-18T20:38:25.916Z,9.30
2023-04-18T20:42:43.362Z,9.30
2023-04-18T20:47:00.986Z,9.30
2023-04-18T20:51:18.414Z,9.30
2023-04-18T20:55:35.651Z,9.10
2023-04-18T20:59:52.804Z,9.00
2023-04-18T21:04:10.145Z,9.10
2023-04-18T21:08:27.420Z,9.10
2023-04-18T21:12:46.220Z,9.20
2023-04-18T21:17:03.417Z,9.10
2023-04-18T21:21:20.576Z,9.10
2023-04-18T21:25:37.709Z,9.00
2023-04-18T21:29:55.151Z,9.10
2023-04-18T21:34:12.302Z,9.10
2023-04-18T21:38:29.449Z,8.90
2023-04-18T21:42:48.672Z,9.00
2023-04-18T21:47:07.006Z,9.00
2023-04-18T21:51:24.166Z,9.00
2023-04-18T21:55:41.351Z,9.00
2023-04-18T21:59:58.489Z,9.10
2023-04-18T22:04:16.142Z,9.10
2023-04-18T22:08:33.871Z,9.10
2023-04-18T22:12:53.959Z,9.10
2023-04-18T22:17:11.190Z,9.00
2023-04-18T22:21:28.345Z,8.90
2023-04-18T22:25:45.635Z,8.80
2023-04-18T22:30:02.992Z,8.70
2023-04-18T22:34:20.103Z,8.70
2023-04-18T22:38:37.233Z,8.80
2023-04-18T22:42:54.438Z,8.90
2023-04-18T22:47:11.598Z,9.00
2023-04-18T22:51:28.780Z,8.90
2023-04-18T22:55:46.447Z,8.90
2023-04-18T23:00:05.195Z,8.90
2023-04-18T23:04:22.572Z,8.80
2023-04-18T23:08:39.755Z,8.70
2023-04-18T23:12:56.995Z,8.70
2023-04-18T23:17:14.094Z,8.60
2023-04-18T23:21:32.166Z,8.70
2023-04-18T23:25:49.299Z,8.80
2023-04-18T23:30:07.237Z,9.00
2023-04-18T23:34:24.400Z,8.80
2023-04-18T23:38:41.916Z,8.80
2023-04-18T23:42:59.134Z,8.80
2023-04-18T23:47:16.325Z,8.90
2023-04-18T23:51:33.536Z,9.00
2023-04-18T23:55:51.224Z,9.00
